Time;durP1;ratioP1;P1;durP2;ratioP2;P2;SDS_P1;SDS_P2;PMS_P1;PMS_P2;Temp;Humidity;BMP_temperature;BMP_pressure;BME280_temperature;BME280_humidity;BME280_pressure;Samples;Min_cycle;Max_cycle;Signal;HPM_P1;HPM_P2
2021/03/04 00:00:36;;;;;;;71.47;39.83;;;;;;;4.83;77.56;101286.81;5059743;28;20608;-72
2021/03/04 00:03:03;;;;;;;70.40;42.30;;;;;;;4.70;77.91;101289.72;5060118;28;20179;-71
2021/03/04 00:05:28;;;;;;;83.10;44.50;;;;;;;4.68;78.19;101299.47;5058025;28;20178;-71
2021/03/04 00:07:54;;;;;;;74.57;42.53;;;;;;;4.67;78.07;101288.94;5058702;28;20179;-71
2021/03/04 00:10:20;;;;;;;67.80;41.23;;;;;;;4.66;78.04;101287.19;5058569;28;20254;-71
2021/03/04 00:12:46;;;;;;;66.60;41.07;;;;;;;4.74;77.28;101289.66;5058470;28;20213;-71
2021/03/04 00:15:13;;;;;;;70.17;40.03;;;;;;;4.67;77.92;101288.94;5056170;28;20200;-71
2021/03/04 00:17:38;;;;;;;74.87;41.90;;;;;;;4.58;78.08;101287.34;5056368;28;20169;-72
2021/03/04 00:20:12;;;;;;;71.23;41.47;;;;;;;4.52;78.09;101287.50;5055815;28;20789;-72
2021/03/04 00:22:38;;;;;;;72.17;40.50;;;;;;;4.56;77.41;101297.09;5056472;28;20186;-71
2021/03/04 00:25:04;;;;;;;60.33;37.33;;;;;;;4.65;77.76;101290.75;5057000;28;20245;-71
2021/03/04 00:27:29;;;;;;;71.93;40.77;;;;;;;4.58;77.92;101287.34;5055840;28;20175;-71
2021/03/04 00:29:55;;;;;;;68.33;40.80;;;;;;;4.61;77.50;101292.59;5056204;28;20271;-71
2021/03/04 00:32:20;;;;;;;61.57;38.20;;;;;;;4.65;77.28;101294.25;5038905;28;20256;-71
2021/03/04 00:34:45;;;;;;;61.73;39.13;;;;;;;4.75;77.18;101286.97;5056911;28;20192;-71
2021/03/04 00:37:10;;;;;;;72.07;40.97;;;;;;;4.68;77.01;101285.38;5056902;28;20187;-71
2021/03/04 00:39:36;;;;;;;68.17;39.63;;;;;;;4.81;76.57;101273.63;5057600;28;20187;-71
2021/03/04 00:42:01;;;;;;;70.37;40.50;;;;;;;4.83;75.97;101276.22;5054753;28;20582;-71
2021/03/04 00:44:27;;;;;;;67.13;39.90;;;;;;;4.81;75.90;101293.91;5056985;28;20265;-70
2021/03/04 00:46:52;;;;;;;64.93;39.17;;;;;;;4.71;76.57;101272.09;5055461;28;20186;-70
2021/03/04 00:49:17;;;;;;;62.23;37.30;;;;;;;4.72;76.40;101274.72;5056338;28;20222;-71
2021/03/04 00:51:43;;;;;;;72.87;43.73;;;;;;;4.49;77.95;101269.06;5054774;28;20221;-71
2021/03/04 00:54:08;;;;;;;73.83;43.40;;;;;;;4.45;78.74;101283.22;5038861;28;20199;-70
2021/03/04 00:56:34;;;;;;;81.57;43.00;;;;;;;4.41;78.49;101270.97;5056874;28;20179;-71
2021/03/04 00:59:00;;;;;;;77.47;44.60;;;;;;;4.29;78.67;101261.53;5056534;28;20698;-69
2021/03/04 01:01:25;;;;;;;82.27;45.57;;;;;;;4.23;78.84;101274.00;5056533;28;20183;-71
2021/03/04 01:03:50;;;;;;;81.57;43.97;;;;;;;4.04;79.51;101271.69;5038785;28;20178;-70
2021/03/04 01:06:17;;;;;;;84.60;44.93;;;;;;;4.05;79.27;101265.50;5056437;28;20174;-70
2021/03/04 01:08:44;;;;;;;86.03;46.37;;;;;;;3.97;79.88;101256.88;5056065;28;20191;-70
2021/03/04 01:11:09;;;;;;;84.17;46.10;;;;;;;3.96;79.98;101263.06;5054992;28;20176;-69
2021/03/04 01:13:34;;;;;;;94.20;47.57;;;;;;;3.95;79.79;101257.78;5055674;28;20198;-70
2021/03/04 01:16:00;;;;;;;95.87;48.70;;;;;;;3.86;80.14;101239.50;5054391;28;20176;-69
2021/03/04 01:18:25;;;;;;;101.20;49.90;;;;;;;3.79;80.62;101244.03;5055342;28;20253;-70
2021/03/04 01:20:50;;;;;;;103.57;51.30;;;;;;;3.73;81.36;101252.94;5056231;28;20179;-71
2021/03/04 01:23:16;;;;;;;94.00;48.37;;;;;;;3.78;81.20;101249.34;5054779;28;20548;-70
2021/03/04 01:25:41;;;;;;;97.90;49.83;;;;;;;3.83;80.75;101245.69;5055387;28;20654;-71
2021/03/04 01:28:06;;;;;;;99.70;51.00;;;;;;;3.93;80.57;101249.91;5054284;28;20204;-71
2021/03/04 01:30:33;;;;;;;91.33;48.03;;;;;;;4.01;80.27;101244.47;5038030;28;20172;-70
2021/03/04 01:32:58;;;;;;;100.53;49.20;;;;;;;3.98;80.60;101252.44;5055635;28;20168;-71
2021/03/04 01:35:24;;;;;;;92.67;46.53;;;;;;;3.97;80.49;101241.03;5053976;28;20199;-71
2021/03/04 01:37:49;;;;;;;90.73;45.13;;;;;;;4.05;79.67;101238.22;5055317;28;20258;-71
2021/03/04 01:40:17;;;;;;;87.87;43.77;;;;;;;4.07;78.91;101224.09;5054520;28;20632;-71
2021/03/04 01:42:42;;;;;;;81.27;42.57;;;;;;;3.95;79.03;101239.31;5054454;28;20187;-70
2021/03/04 01:45:09;;;;;;;80.40;41.73;;;;;;;3.91;79.17;101220.00;5054340;28;20559;-69
2021/03/04 01:47:35;;;;;;;83.20;42.00;;;;;;;3.84;79.29;101218.41;5055369;28;20278;-71
2021/03/04 01:50:04;;;;;;;85.23;43.10;;;;;;;3.77;79.77;101227.34;5053956;28;20196;-71
2021/03/04 01:52:30;;;;;;;81.80;44.03;;;;;;;3.50;80.97;101206.72;5055677;28;20191;-71
2021/03/04 01:54:55;;;;;;;95.73;46.03;;;;;;;3.43;81.40;101221.78;5054003;28;20203;-71
2021/03/04 01:57:21;;;;;;;87.07;44.07;;;;;;;3.53;80.57;101226.00;5054177;28;20754;-71
2021/03/04 01:59:46;;;;;;;82.63;40.43;;;;;;;3.55;80.72;101207.50;5055242;28;20206;-72
2021/03/04 02:05:33;;;;;;;78.87;40.70;;;;;;;3.57;80.62;101210.97;5054993;28;20210;-71
2021/03/04 02:08:17;;;;;;;83.97;41.07;;;;;;;3.52;79.89;101211.06;5055010;28;20175;-71
2021/03/04 02:11:03;;;;;;;74.10;39.97;;;;;;;3.34;80.79;101211.38;5054921;28;20519;-71
2021/03/04 02:13:43;;;;;;;75.87;37.93;;;;;;;3.48;80.16;101204.09;5051008;28;20182;-71
2021/03/04 02:16:18;;;;;;;78.77;38.57;;;;;;;3.43;80.41;101208.59;5054165;28;20260;-71
2021/03/04 02:19:06;;;;;;;90.00;42.90;;;;;;;3.28;81.24;101208.84;5054255;28;20657;-71
2021/03/04 02:21:34;;;;;;;85.80;44.20;;;;;;;3.26;81.88;101208.00;5053787;28;20170;-70
2021/03/04 02:24:28;;;;;;;79.60;43.10;;;;;;;3.11;82.49;101207.38;5055216;28;20175;-70
2021/03/04 02:27:07;;;;;;;91.57;43.37;;;;;;;3.24;81.24;101213.31;5055064;28;20265;-70
2021/03/04 02:29:40;;;;;;;88.43;44.23;;;;;;;2.99;82.47;101207.59;5053713;28;20191;-71
2021/03/04 02:32:06;;;;;;;90.03;42.33;;;;;;;3.06;82.47;101200.44;5055536;28;20230;-71
2021/03/04 02:34:32;;;;;;;91.23;44.53;;;;;;;3.09;82.60;101211.81;5055280;28;20253;-70
2021/03/04 02:37:00;;;;;;;97.23;47.17;;;;;;;3.08;82.37;101204.78;5055480;28;20207;-71
2021/03/04 02:39:26;;;;;;;88.13;43.93;;;;;;;3.03;82.81;101211.91;5054899;28;20199;-71
2021/03/04 02:41:53;;;;;;;88.33;44.00;;;;;;;2.98;82.96;101212.88;5054506;28;20174;-71
2021/03/04 02:44:20;;;;;;;95.60;48.63;;;;;;;2.87;83.39;101214.78;5037533;28;20224;-70
2021/03/04 02:46:46;;;;;;;86.13;44.93;;;;;;;2.85;84.04;101222.72;5053986;28;20254;-69
2021/03/04 02:49:11;;;;;;;94.57;45.87;;;;;;;2.75;83.51;101227.25;5053906;28;20283;-70
2021/03/04 02:51:38;;;;;;;88.93;46.97;;;;;;;2.81;82.45;101231.56;5055122;28;20166;-71
2021/03/04 02:54:04;;;;;;;85.63;42.70;;;;;;;2.88;82.25;101222.66;5053738;28;20190;-70
2021/03/04 02:56:30;;;;;;;75.37;41.73;;;;;;;2.92;81.75;101212.94;5053087;28;20317;-70
2021/03/04 02:59:01;;;;;;;79.27;40.30;;;;;;;2.82;81.69;101218.38;5052958;28;20193;-70
2021/03/04 03:01:27;;;;;;;78.53;42.00;;;;;;;2.86;81.21;101213.03;5053036;28;20155;-70
2021/03/04 03:03:53;;;;;;;75.70;42.30;;;;;;;2.78;81.31;101200.00;5053780;28;20637;-70
2021/03/04 03:06:21;;;;;;;72.67;38.23;;;;;;;2.71;80.93;101222.94;5057043;28;20717;-70
2021/03/04 03:08:46;;;;;;;68.97;37.20;;;;;;;2.70;80.98;101207.16;5058229;28;20193;-70
2021/03/04 03:11:14;;;;;;;67.57;36.93;;;;;;;2.57;81.23;101206.44;5056617;28;20178;-69
2021/03/04 03:13:40;;;;;;;65.53;37.70;;;;;;;2.49;81.49;101224.13;5056709;28;20179;-69
2021/03/04 03:16:06;;;;;;;60.37;35.60;;;;;;;2.48;81.76;101217.97;5058248;28;20697;-70
2021/03/04 03:18:31;;;;;;;57.03;32.37;;;;;;;2.53;80.93;101212.63;5056401;28;20202;-71
2021/03/04 03:20:56;;;;;;;52.07;31.37;;;;;;;2.51;80.59;101219.69;5056998;28;20176;-70
2021/03/04 03:23:22;;;;;;;48.60;28.57;;;;;;;2.33;80.48;101217.31;5058019;28;20210;-70
2021/03/04 03:25:47;;;;;;;45.57;25.67;;;;;;;2.29;80.33;101215.63;5057947;28;20175;-70
2021/03/04 03:28:12;;;;;;;42.63;26.43;;;;;;;2.26;80.20;101213.91;5056592;28;20255;-70
2021/03/04 03:30:38;;;;;;;44.77;27.33;;;;;;;2.09;80.51;101216.72;5057855;28;20174;-69
2021/03/04 03:33:07;;;;;;;44.20;25.53;;;;;;;2.17;80.31;101219.25;5056424;28;20166;-70
2021/03/04 03:35:32;;;;;;;39.53;24.20;;;;;;;2.22;nan;101208.66;5040003;28;20234;-70
2021/03/04 03:37:59;;;;;;;41.13;24.77;;;;;;;2.21;79.97;101207.78;5056341;28;20199;-70
2021/03/04 03:40:25;;;;;;;46.77;25.40;;;;;;;2.14;80.21;101209.63;5057322;28;20171;-71
2021/03/04 03:42:53;;;;;;;46.10;27.10;;;;;;;2.17;79.79;101217.50;5057576;28;20174;-71
2021/03/04 03:45:22;;;;;;;40.07;23.90;;;;;;;2.17;79.85;101212.22;5056327;28;20202;-70
2021/03/04 03:47:47;;;;;;;41.87;24.03;;;;;;;1.98;80.36;101210.72;5055901;28;20592;-70
2021/03/04 03:50:15;;;;;;;41.10;24.33;;;;;;;2.03;80.42;101218.56;5056001;28;20224;-70
2021/03/04 03:52:41;;;;;;;32.53;20.23;;;;;;;2.06;80.09;101214.13;5057354;28;20175;-70
2021/03/04 03:55:08;;;;;;;37.50;21.10;;;;;;;2.06;80.24;101213.25;5055920;28;20254;-70
2021/03/04 03:57:33;;;;;;;36.63;21.83;;;;;;;2.06;80.02;101208.88;5057136;28;20709;-70
2021/03/04 04:00:00;;;;;;;31.53;19.10;;;;;;;2.01;79.87;101210.69;5055877;28;20198;-70
2021/03/04 04:02:26;;;;;;;35.10;21.90;;;;;;;1.92;80.99;101205.53;5056854;28;20536;-70
2021/03/04 04:04:51;;;;;;;37.43;22.77;;;;;;;1.90;80.88;101209.94;5056203;28;20185;-69
2021/03/04 04:07:17;;;;;;;41.10;22.67;;;;;;;1.80;81.48;101210.91;5055413;28;20229;-70
2021/03/04 04:09:44;;;;;;;38.33;23.93;;;;;;;1.91;80.97;101210.81;5055433;28;20225;-70
2021/03/04 04:12:09;;;;;;;36.17;22.03;;;;;;;1.97;80.94;101208.09;5039198;28;20175;-71
2021/03/04 04:14:35;;;;;;;38.97;21.87;;;;;;;2.00;80.32;101208.94;5056451;28;20247;-71
2021/03/04 04:17:00;;;;;;;39.70;22.90;;;;;;;1.97;80.45;101213.38;5055604;28;20185;-71
2021/03/04 04:19:26;;;;;;;34.23;20.70;;;;;;;1.96;80.50;101204.59;5057098;28;20322;-70
2021/03/04 04:21:51;;;;;;;40.23;22.07;;;;;;;1.83;81.60;101208.25;5039538;28;20205;-70
2021/03/04 04:24:17;;;;;;;37.30;20.63;;;;;;;1.93;81.29;101207.28;5057104;28;20637;-70
2021/03/04 04:26:42;;;;;;;40.83;22.83;;;;;;;1.96;80.70;101201.09;5057980;28;20196;-70
2021/03/04 04:29:07;;;;;;;34.10;20.47;;;;;;;2.00;80.40;101206.31;5055948;28;20201;-70
2021/03/04 04:31:33;;;;;;;34.20;20.90;;;;;;;2.07;80.18;101202.72;5056438;28;20172;-70
2021/03/04 04:33:58;;;;;;;36.70;22.00;;;;;;;2.11;79.56;101200.91;5055565;28;20229;-71
2021/03/04 04:36:23;;;;;;;35.93;20.60;;;;;;;2.08;79.34;101191.28;5038660;28;20194;-70
2021/03/04 04:38:49;;;;;;;29.50;19.23;;;;;;;1.91;80.23;101188.00;5057109;28;20190;-70
2021/03/04 04:41:14;;;;;;;35.70;20.30;;;;;;;1.78;80.63;101189.00;5039116;28;20270;-70
2021/03/04 04:43:39;;;;;;;29.43;18.17;;;;;;;1.85;80.47;101191.53;5057399;28;20185;-70
2021/03/04 04:46:04;;;;;;;31.27;18.53;;;;;;;1.85;80.34;101182.78;5056966;28;20174;-71
2021/03/04 04:48:30;;;;;;;27.30;17.70;;;;;;;1.84;79.83;101187.16;5056756;28;20206;-71
2021/03/04 04:50:55;;;;;;;24.37;15.20;;;;;;;1.94;79.90;101181.81;5056817;28;20258;-70
2021/03/04 04:53:20;;;;;;;28.80;18.50;;;;;;;2.00;78.97;101171.22;5056480;28;20174;-70
2021/03/04 04:55:46;;;;;;;26.30;16.60;;;;;;;2.00;79.32;101172.09;5055206;28;20218;-70
2021/03/04 04:58:11;;;;;;;30.93;19.60;;;;;;;1.87;79.68;101168.75;5055677;28;20197;-70
2021/03/04 05:00:36;;;;;;;29.10;17.40;;;;;;;1.90;78.94;101165.19;5055388;28;20182;-69
2021/03/04 05:03:02;;;;;;;30.37;16.73;;;;;;;1.97;79.08;101163.34;5055591;28;20180;-70
2021/03/04 05:05:27;;;;;;;29.50;18.33;;;;;;;2.05;78.48;101167.63;5055765;28;20706;-71
2021/03/04 05:07:52;;;;;;;32.00;18.43;;;;;;;1.85;79.63;101162.59;5060306;28;20641;-69
2021/03/04 05:10:18;;;;;;;30.37;17.97;;;;;;;1.91;79.32;101166.06;5054390;28;20174;-69
2021/03/04 05:12:43;;;;;;;24.63;15.83;;;;;;;1.97;78.96;101164.22;5038214;28;20171;-70
2021/03/04 05:15:10;;;;;;;24.80;16.47;;;;;;;2.03;78.54;101166.78;5054686;28;20673;-70
2021/03/04 05:17:36;;;;;;;22.87;15.47;;;;;;;1.99;78.05;101169.47;5055342;28;20174;-70
2021/03/04 05:20:03;;;;;;;21.33;13.97;;;;;;;2.02;77.55;101164.16;5054103;28;20286;-70
2021/03/04 05:22:28;;;;;;;26.27;15.23;;;;;;;1.97;77.51;101169.50;5054209;28;20655;-70
2021/03/04 05:24:53;;;;;;;20.97;14.03;;;;;;;1.90;77.76;101170.47;5055324;28;20174;-69
2021/03/04 05:27:22;;;;;;;19.30;13.50;;;;;;;1.81;77.49;101165.28;5055525;28;20171;-70
2021/03/04 05:29:47;;;;;;;22.57;14.10;;;;;;;1.88;77.03;101166.97;5053867;28;20204;-70
2021/03/04 05:32:12;;;;;;;19.90;13.50;;;;;;;1.73;77.05;101157.47;5055774;28;20173;-70
2021/03/04 05:34:38;;;;;;;23.03;13.97;;;;;;;1.79;77.08;101156.53;5053995;28;20209;-72
2021/03/04 05:37:03;;;;;;;20.00;13.27;;;;;;;1.79;77.38;101156.53;5054395;28;20175;-70
2021/03/04 05:39:28;;;;;;;24.80;15.73;;;;;;;1.51;78.45;101156.00;5055311;28;20201;-71
2021/03/04 05:41:55;;;;;;;24.63;14.53;;;;;;;1.46;78.42;101153.38;5055253;28;20173;-71
2021/03/04 05:44:20;;;;;;;24.93;16.27;;;;;;;1.30;79.34;101146.56;5053921;28;20235;-72
2021/03/04 05:46:47;;;;;;;20.33;13.70;;;;;;;1.33;78.94;101159.66;5054390;28;20189;-69
2021/03/04 05:49:12;;;;;;;19.67;13.30;;;;;;;1.14;78.44;101150.22;5060807;23;20644;-69
2021/03/04 05:51:39;;;;;;;16.27;11.17;;;;;;;1.05;77.02;101151.16;5052842;28;20212;-69
2021/03/04 05:54:05;;;;;;;13.43;9.17;;;;;;;1.12;76.73;101158.13;5069282;28;20675;-68
2021/03/04 05:56:30;;;;;;;14.23;9.63;;;;;;;1.00;76.94;101157.34;5052845;28;20251;-68
2021/03/04 05:58:57;;;;;;;12.63;8.23;;;;;;;0.82;77.35;101154.00;5053746;28;20242;-69
2021/03/04 06:01:22;;;;;;;9.63;7.07;;;;;;;0.94;76.90;101163.53;5052574;28;20666;-69
2021/03/04 06:03:47;;;;;;;10.77;7.33;;;;;;;1.01;76.53;101154.69;5052424;28;20165;-67
2021/03/04 06:06:13;;;;;;;9.43;7.00;;;;;;;1.03;76.28;101157.31;5053799;28;20661;-68
2021/03/04 06:08:38;;;;;;;10.17;7.07;;;;;;;1.03;76.21;101168.69;5053714;28;20193;-69
2021/03/04 06:11:04;;;;;;;8.70;6.57;;;;;;;1.05;76.35;101173.94;5053632;28;20176;-68
2021/03/04 06:13:30;;;;;;;9.07;6.60;;;;;;;0.86;77.19;101171.50;5053607;28;20183;-68
2021/03/04 06:15:56;;;;;;;11.27;7.17;;;;;;;0.92;77.15;101166.19;5052667;28;20172;-68
2021/03/04 06:18:22;;;;;;;9.77;6.67;;;;;;;0.99;77.48;101166.13;5052609;28;20533;-68
2021/03/04 06:20:47;;;;;;;8.63;6.40;;;;;;;1.10;76.38;101169.53;5052448;28;20222;-68
2021/03/04 06:23:13;;;;;;;10.90;7.13;;;;;;;1.09;76.50;101173.03;5054982;28;20188;-69
2021/03/04 06:25:38;;;;;;;9.33;7.13;;;;;;;1.06;76.64;101173.94;5057132;28;20173;-68
2021/03/04 06:28:05;;;;;;;13.53;8.17;;;;;;;1.01;77.38;101161.72;5057564;28;20551;-69
2021/03/04 06:30:39;;;;;;;10.57;6.80;;;;;;;1.06;76.99;101173.06;5054516;28;20183;-68
2021/03/04 06:33:06;;;;;;;12.53;7.40;;;;;;;1.26;76.13;101168.50;5052973;28;20181;-68
2021/03/04 06:35:42;;;;;;;8.63;6.70;;;;;;;1.09;76.93;101173.91;5053110;28;20189;-68
2021/03/04 06:38:22;;;;;;;8.33;5.77;;;;;;;1.10;76.76;101169.53;5035712;28;20674;-68
2021/03/04 06:40:48;;;;;;;6.17;5.07;;;;;;;1.12;76.17;101178.28;5036071;28;20202;-68
2021/03/04 06:43:22;;;;;;;8.63;5.73;;;;;;;1.05;76.53;101177.44;5053873;28;20171;-69
2021/03/04 06:45:47;;;;;;;7.23;5.43;;;;;;;0.91;77.37;101171.44;5054435;28;20166;-68
2021/03/04 06:48:14;;;;;;;6.73;5.30;;;;;;;0.93;77.48;101181.06;5053775;28;20649;-68
2021/03/04 06:50:41;;;;;;;8.77;5.10;;;;;;;0.98;77.08;101182.78;5053935;28;20208;-68
2021/03/04 06:53:17;;;;;;;7.40;5.43;;;;;;;1.04;77.00;101178.34;5052442;28;20254;-67
2021/03/04 06:55:56;;;;;;;7.10;4.87;;;;;;;1.00;76.82;101163.47;5052597;28;20181;-67
2021/03/04 06:58:25;;;;;;;6.67;4.57;;;;;;;1.05;76.81;101171.31;5053093;28;20167;-67
2021/03/04 07:01:10;;;;;;;5.50;4.20;;;;;;;1.02;76.72;101169.59;5052314;28;20172;-68
2021/03/04 07:03:41;;;;;;;5.80;4.53;;;;;;;1.11;76.74;101177.38;5054186;28;20215;-69
2021/03/04 07:06:08;;;;;;;7.40;4.40;;;;;;;1.13;76.79;101162.50;5053775;28;20177;-68
2021/03/04 07:08:39;;;;;;;6.00;4.80;;;;;;;1.14;76.70;101173.91;5052850;28;20225;-68
2021/03/04 07:11:06;;;;;;;6.37;4.73;;;;;;;1.25;77.35;101166.78;5053274;28;20174;-68
2021/03/04 07:13:33;;;;;;;5.47;4.17;;;;;;;1.23;77.60;101173.81;5053428;28;20171;-67
2021/03/04 07:16:06;;;;;;;23.03;15.03;;;;;;;1.33;78.56;101167.56;5053362;28;20179;-69
2021/03/04 07:18:37;;;;;;;11.17;7.23;;;;;;;1.37;78.31;101179.78;5052421;28;20164;-68
2021/03/04 07:21:02;;;;;;;10.70;7.27;;;;;;;1.38;78.79;101172.78;5053586;28;20154;-70
2021/03/04 07:23:28;;;;;;;7.67;5.60;;;;;;;1.39;78.03;101177.16;5052575;28;20662;-68
2021/03/04 07:25:54;;;;;;;7.63;5.20;;;;;;;1.30;77.51;101161.47;5053918;28;20230;-69
2021/03/04 07:28:20;;;;;;;7.67;5.37;;;;;;;1.32;78.44;101163.19;5051920;28;20178;-68
2021/03/04 07:30:46;;;;;;;7.80;5.57;;;;;;;1.37;78.33;101173.66;5052416;28;20648;-68
2021/03/04 07:33:11;;;;;;;10.20;5.67;;;;;;;1.34;78.20;101153.53;5051868;28;20246;-70
2021/03/04 07:35:37;;;;;;;9.73;6.47;;;;;;;1.27;79.32;101157.09;5052417;28;20730;-69
2021/03/04 07:38:02;;;;;;;10.10;6.50;;;;;;;1.30;79.11;101156.19;5052972;28;20215;-69
2021/03/04 07:40:27;;;;;;;11.53;7.17;;;;;;;1.29;79.55;101159.72;5051470;28;20247;-69
2021/03/04 07:43:03;;;;;;;11.90;6.43;;;;;;;1.25;80.14;101156.25;5053229;28;20176;-68
2021/03/04 07:45:28;;;;;;;14.03;7.23;;;;;;;1.27;80.13;101153.59;5053705;28;20255;-69
2021/03/04 07:47:54;;;;;;;8.87;6.13;;;;;;;1.31;79.75;101156.19;5051767;28;20248;-67
2021/03/04 07:50:23;;;;;;;9.23;5.80;;;;;;;1.36;78.74;101154.38;5053549;28;20219;-68
2021/03/04 07:52:49;;;;;;;7.63;5.50;;;;;;;1.37;78.89;101158.75;5055711;28;20202;-68
2021/03/04 07:55:16;;;;;;;6.87;5.73;;;;;;;1.39;79.42;101159.59;5039000;28;20653;-69
2021/03/04 07:57:48;;;;;;;6.90;5.63;;;;;;;1.36;79.17;101156.13;5056336;28;20272;-69
2021/03/04 08:00:15;;;;;;;7.77;5.33;;;;;;;1.35;79.51;101160.53;5055061;28;20196;-69
2021/03/04 08:02:42;;;;;;;8.50;6.10;;;;;;;1.41;79.68;101164.84;5056295;28;20264;-68
2021/03/04 08:05:19;;;;;;;7.83;5.83;;;;;;;1.47;79.78;101164.78;5055383;28;20649;-68
2021/03/04 08:07:47;;;;;;;10.37;6.50;;;;;;;1.50;79.57;101156.88;5056974;28;20196;-69
2021/03/04 08:10:18;;;;;;;9.20;6.43;;;;;;;1.56;79.06;101156.81;5067401;28;20272;-68
2021/03/04 08:12:54;;;;;;;7.63;5.70;;;;;;;1.52;79.56;101160.38;5068189;28;20161;-70
2021/03/04 08:15:34;;;;;;;9.50;6.40;;;;;;;1.55;79.82;101157.69;5057228;28;20188;-68
2021/03/04 08:18:01;;;;;;;7.17;5.60;;;;;;;1.60;79.67;101145.38;5057288;28;20173;-69
2021/03/04 08:20:26;;;;;;;8.00;6.30;;;;;;;1.67;78.98;101152.28;5055555;28;20217;-69
2021/03/04 08:22:58;;;;;;;13.23;9.07;;;;;;;1.76;78.50;101146.91;5055587;28;20709;-68
2021/03/04 08:25:26;;;;;;;6.43;5.63;;;;;;;1.84;78.77;101144.19;5056774;28;20152;-69
2021/03/04 08:27:54;;;;;;;10.77;6.67;;;;;;;1.96;77.86;101138.78;5056988;28;20254;-69
2021/03/04 08:30:32;;;;;;;10.97;6.40;;;;;;;2.03;77.60;101150.09;5072218;28;20198;-69
2021/03/04 08:33:01;;;;;;;10.53;7.47;;;;;;;2.17;76.98;101140.25;5038969;28;20167;-69
2021/03/04 08:35:26;;;;;;;10.10;6.87;;;;;;;2.23;76.54;101132.28;5056099;28;20194;-68
2021/03/04 08:38:07;;;;;;;9.97;5.83;;;;;;;2.31;75.66;101135.69;5055794;28;20174;-68
2021/03/04 08:40:50;;;;;;;6.57;4.80;;;;;;;2.30;75.61;101138.34;5055595;28;20205;-69
2021/03/04 08:43:17;;;;;;;6.80;4.80;;;;;;;2.34;75.63;101134.78;5039393;28;20224;-70
2021/03/04 08:45:44;;;;;;;9.17;5.20;;;;;;;2.31;75.98;101134.81;5055051;28;20174;-68
2021/03/04 08:48:11;;;;;;;8.20;5.43;;;;;;;2.41;75.19;101141.69;5055601;28;20569;-68
2021/03/04 08:50:42;;;;;;;10.10;7.00;;;;;;;2.46;75.00;101131.94;5055154;28;20212;-69
2021/03/04 08:53:10;;;;;;;9.80;6.03;;;;;;;2.48;75.19;101128.38;5054574;28;20165;-70
2021/03/04 08:55:46;;;;;;;9.33;6.40;;;;;;;2.63;74.45;101129.94;5054479;28;20701;-69
2021/03/04 08:58:11;;;;;;;6.33;4.70;;;;;;;2.63;74.56;101121.16;5055918;28;20165;-68
2021/03/04 09:00:37;;;;;;;7.60;5.17;;;;;;;2.64;74.13;101122.91;5055084;28;20580;-68
2021/03/04 09:03:07;;;;;;;7.40;5.17;;;;;;;2.72;74.07;101121.88;5054293;28;20477;-68
2021/03/04 09:05:32;;;;;;;9.40;4.60;;;;;;;2.79;73.44;101127.91;5055015;28;20170;-68
2021/03/04 09:07:57;;;;;;;6.90;4.50;;;;;;;2.79;73.50;101122.66;5054885;28;20175;-68
2021/03/04 09:10:23;;;;;;;7.10;4.50;;;;;;;2.79;74.17;101120.88;5055093;28;20241;-69
2021/03/04 09:12:48;;;;;;;8.20;5.20;;;;;;;2.90;73.47;101114.56;5055107;28;20179;-68
2021/03/04 09:15:16;;;;;;;6.60;4.80;;;;;;;2.95;72.77;101125.88;5036912;28;20197;-69
2021/03/04 09:17:46;;;;;;;5.93;4.13;;;;;;;2.94;73.15;101114.47;5053444;28;20177;-69
2021/03/04 09:20:13;;;;;;;7.67;4.63;;;;;;;2.88;72.99;101105.78;5055134;28;20199;-67
2021/03/04 09:22:40;;;;;;;7.93;4.50;;;;;;;2.98;72.60;101107.41;5053961;28;20236;-68
2021/03/04 09:25:06;;;;;;;5.77;4.03;;;;;;;2.91;72.92;101111.00;5054207;28;20642;-70
2021/03/04 09:27:31;;;;;;;9.17;6.13;;;;;;;3.00;72.64;101108.25;5053367;28;20186;-68
2021/03/04 09:29:57;;;;;;;7.63;5.50;;;;;;;3.08;71.87;101114.25;5053184;28;20195;-69
2021/03/04 09:32:32;;;;;;;5.60;4.50;;;;;;;3.16;71.99;101109.69;5054604;28;20182;-68
2021/03/04 09:34:58;;;;;;;5.07;3.70;;;;;;;3.17;71.93;101103.53;5054132;28;20713;-69
2021/03/04 09:37:26;;;;;;;6.07;4.13;;;;;;;3.23;71.61;101115.72;5053509;28;20172;-68
2021/03/04 09:39:52;;;;;;;8.43;4.40;;;;;;;3.26;71.52;101124.44;5053658;28;20286;-68
2021/03/04 09:42:20;;;;;;;8.90;4.93;;;;;;;3.30;71.42;101117.34;5054519;28;20191;-68
2021/03/04 09:44:56;;;;;;;7.50;4.37;;;;;;;3.26;71.43;101111.25;5054119;28;20175;-68
2021/03/04 09:47:23;;;;;;;6.63;5.00;;;;;;;3.27;71.19;101110.38;5052996;28;20175;-68
2021/03/04 09:49:49;;;;;;;19.07;6.00;;;;;;;3.37;71.23;101114.59;5052998;28;20285;-69
2021/03/04 09:52:22;;;;;;;11.03;4.27;;;;;;;3.38;70.93;101112.81;5054412;28;20174;-68
2021/03/04 09:54:49;;;;;;;5.93;4.37;;;;;;;3.47;70.70;101115.28;5052995;28;20194;-68
2021/03/04 09:57:19;;;;;;;7.40;4.30;;;;;;;3.48;70.57;101114.38;5036411;28;20653;-68
2021/03/04 09:59:49;;;;;;;7.57;4.60;;;;;;;3.43;70.50;101111.84;5052945;28;20195;-69
2021/03/04 10:02:16;;;;;;;6.73;4.43;;;;;;;3.45;70.61;101103.88;5052869;28;20185;-68
2021/03/04 10:05:01;;;;;;;10.07;4.80;;;;;;;3.45;70.72;101102.13;5052738;28;20167;-69
2021/03/04 10:07:27;;;;;;;11.13;4.53;;;;;;;3.55;70.43;101120.41;5052821;28;20211;-70
2021/03/04 10:09:53;;;;;;;8.43;4.10;;;;;;;3.59;69.89;101111.53;5053527;28;20547;-68
2021/03/04 10:12:18;;;;;;;6.40;4.30;;;;;;;3.42;69.99;101115.38;5052555;28;20174;-68
2021/03/04 10:14:48;;;;;;;11.43;4.87;;;;;;;3.45;70.92;101114.44;5053240;28;20273;-69
2021/03/04 10:17:14;;;;;;;5.87;4.00;;;;;;;3.54;69.76;101101.06;5054413;28;20582;-68
2021/03/04 10:19:40;;;;;;;4.73;3.40;;;;;;;3.52;70.56;101110.78;5053546;28;20196;-69
2021/03/04 10:22:06;;;;;;;5.50;4.13;;;;;;;3.59;70.29;101106.25;5053902;28;20681;-69
2021/03/04 10:24:31;;;;;;;9.27;4.00;;;;;;;3.66;69.60;101110.50;5052333;28;20179;-69
2021/03/04 10:26:58;;;;;;;14.10;4.07;;;;;;;3.69;69.37;101097.22;5052233;28;20170;-68
2021/03/04 10:29:27;;;;;;;5.07;3.47;;;;;;;3.58;69.67;101097.47;5053371;28;20187;-68
2021/03/04 10:31:53;;;;;;;7.37;3.90;;;;;;;3.44;70.76;101096.88;5052323;28;20725;-68
2021/03/04 10:34:18;;;;;;;5.40;3.73;;;;;;;3.51;70.55;101093.22;5068927;28;20194;-70
2021/03/04 10:36:43;;;;;;;8.67;4.00;;;;;;;3.43;70.74;101090.72;5053813;28;20176;-68
2021/03/04 10:39:09;;;;;;;7.80;3.70;;;;;;;3.35;71.15;101094.41;5053537;28;20562;-68
2021/03/04 10:41:34;;;;;;;5.70;3.93;;;;;;;3.34;71.93;101096.16;5053292;28;20532;-69
2021/03/04 10:43:59;;;;;;;9.27;5.30;;;;;;;3.58;70.59;101101.88;5053253;28;20179;-68
2021/03/04 10:46:29;;;;;;;6.30;4.20;;;;;;;3.69;69.91;101103.38;5053285;28;20182;-68
2021/03/04 10:48:55;;;;;;;12.73;4.13;;;;;;;3.72;70.40;101095.44;5053494;28;20309;-68
2021/03/04 10:51:20;;;;;;;6.50;3.50;;;;;;;3.76;69.92;101089.19;5053204;28;20171;-68
2021/03/04 10:53:45;;;;;;;7.80;4.00;;;;;;;3.76;69.79;101096.22;5051890;28;20190;-69
2021/03/04 10:56:11;;;;;;;5.90;3.90;;;;;;;3.73;70.50;101093.66;5052416;28;20178;-69
2021/03/04 10:58:36;;;;;;;7.07;4.00;;;;;;;3.66;70.73;101097.28;5054293;28;20179;-68
2021/03/04 11:01:01;;;;;;;10.57;3.90;;;;;;;3.77;70.38;101084.78;5052134;28;20181;-70
2021/03/04 11:03:26;;;;;;;8.87;5.37;;;;;;;3.80;69.76;101089.97;5053618;28;20195;-69
2021/03/04 11:05:52;;;;;;;6.17;3.07;;;;;;;3.73;69.86;101094.53;5050506;28;20171;-69
2021/03/04 11:08:17;;;;;;;5.27;3.40;;;;;;;3.80;70.21;101095.25;5069919;28;20172;-69
2021/03/04 11:10:42;;;;;;;8.77;4.20;;;;;;;3.75;70.57;101091.84;5056769;28;20175;-70
2021/03/04 11:13:08;;;;;;;13.47;4.97;;;;;;;3.71;70.49;101095.44;5054066;28;20194;-68
2021/03/04 11:15:33;;;;;;;12.63;5.17;;;;;;;3.68;70.83;101106.06;5052138;28;20194;-69
2021/03/04 11:17:59;;;;;;;13.20;4.50;;;;;;;3.66;70.92;101092.88;5053650;28;20186;-69
2021/03/04 11:20:25;;;;;;;10.33;4.10;;;;;;;3.74;70.61;101098.03;5054062;28;20199;-68
2021/03/04 11:22:50;;;;;;;8.73;3.67;;;;;;;3.81;70.37;101091.72;5053818;28;20186;-68
2021/03/04 11:25:15;;;;;;;9.53;3.80;;;;;;;3.72;70.50;101089.28;5055242;28;20175;-68
2021/03/04 11:27:41;;;;;;;9.57;3.80;;;;;;;3.81;70.50;101085.56;5058048;28;20187;-69